Pahrump, Nevada Weather observations

Data are for observation ending at time listed.
 Day   Time    Ave.   Ave.  Ave.  Vector   Max.   Stn.    Total    Solar   Ave.  
  of    of     Air    Rel.  Wind   Wind    Wind   Baro.  Precip.   Rad.    Soil  
Year   Day     Temp.  Hum.  Speed  Dir.    Gust   Pres.                    Temp. 
2017   (PST)    F      %     mph   deg.    mph     mb.     in.     W/m2     F   
------------------------------------------------------------------------------
  35   21:00   49.5    60    0.9   223      3.2   920.8    0.00       0    54.1
  35   21:10   48.3    65    1.6   223      2.9   920.8    0.00       0    53.9
  35   21:20   47.1    69    0.7   221      1.7   920.9    0.00       0    53.7
  35   21:30   46.8    70    0.4   219      1.2   920.9    0.00       0    53.6
  35   21:40   47.0    70    0.8   119      2.9   920.9    0.00       0    53.4
  35   21:50   47.2    70    2.5   104      3.4   921.0    0.00       0    53.2
  35   22:00   47.1    70    3.5   107      4.6   921.0    0.00       0    53.1
  35   22:10   46.7    72    2.5   126      3.8   921.1    0.00       0    52.9
  35   22:20   47.1    70    2.6    95      3.7   921.2    0.00       0    52.8
  35   22:30   47.4    66    1.7    69      3.5   921.2    0.00       0    52.6
  35   22:40   47.8    62    1.8    60      3.2   921.2    0.00       0    52.5
  35   22:50   46.4    68    2.1   310      3.4   921.2    0.00       0    52.4
  35   23:00   44.5    75    1.8     2      2.9   921.2    0.00       0    52.2
  35   23:10   44.7    74    0.6    31      1.8   921.1    0.00       0    52.1
  35   23:20   44.3    75    1.1   230      1.8   921.0    0.00       0    52.0
  35   23:30   43.9    76    0.3   185      0.9   920.9    0.00       0    51.8
  35   23:40   44.7    75    0.9   163      1.8   920.8    0.00       0    51.7
  35   23:50   44.8    75    0.3   307      1.1   920.7    0.00       0    51.5
  36    0:00   44.4    75    0.4   310      1.2   920.6    0.00       0    51.4
  36    0:10   43.7    77    0.9   302      1.8   920.5    0.00       0    51.3
  36    0:20   42.7    80    0.8   237      1.6   920.5    0.00       0    51.2
  36    0:30   42.5    80    0.3   187      1.1   920.4    0.00       0    51.1
  36    0:40   42.5    79    0.2   162      1.1   920.2    0.00       0    51.0
  36    0:50   42.2    80    0.7   262      2.2   920.2    0.00       0    50.8
  36    1:00   41.8    80    0.6   273      1.7   920.3    0.00       0    50.7
  36    1:10   41.9    80    0.9   126      2.6   920.3    0.00       0    50.6
  36    1:20   41.8    80    1.2   114      2.7   920.2    0.00       0    50.4
  36    1:30   41.8    81    0.0     0      0.0   920.2    0.00       0    50.3
  36    1:40   41.6    81    1.1   111      2.1   920.2    0.00       0    50.1
  36    1:50   41.6    80    1.7   140      3.1   920.2    0.00       0    50.0
  36    2:00   41.8    78    0.8   103      2.7   920.1    0.00       0    49.9
  36    2:10   41.6    78    0.0     0      0.0   920.0    0.00       0    49.7
  36    2:20   41.3    78    1.3   129      2.5   919.8    0.00       0    49.6
  36    2:30   41.6    77    1.6   160      2.7   919.6    0.00       0    49.5
  36    2:40   41.8    77    1.2   154      2.4   919.6    0.00       0    49.4
  36    2:50   41.5    77    0.3   114      1.1   919.5    0.00       0    49.2
  36    3:00   41.2    78    0.8   132      1.9   919.5    0.00       0    49.1
  36    3:10   41.0    77    0.3   333      2.2   919.4    0.00       0    49.0
  36    3:20   40.4    77    0.1   322      1.2   919.3    0.00       0    48.9
  36    3:30   40.3    78    0.5   199      1.3   919.1    0.00       0    48.8
  36    3:40   39.8    81    0.7   176      1.6   919.1    0.00       0    48.7
  36    3:50   39.8    82    0.7   169      1.4   919.0    0.00       0    48.6
  36    4:00   39.9    82    0.9   169      1.4   919.1    0.00       0    48.5
  36    4:10   40.1    82    1.5   129      2.5   919.0    0.00       0    48.3
  36    4:20   40.4    82    1.6   109      2.3   918.9    0.00       0    48.2
  36    4:30   40.4    80    1.3    90      2.0   919.0    0.00       0    48.1
  36    4:40   40.0    81    1.7    97      2.5   919.1    0.00       0    48.0
  36    4:50   39.6    82    2.2   118      3.3   919.0    0.00       0    47.9
  36    5:00   39.4    83    1.5   138      2.9   919.0    0.00       0    47.8
  36    5:10   39.4    83    1.3   129      2.6   919.1    0.00       0    47.7
  36    5:20   39.4    83    1.5   146      2.1   919.1    0.00       0    47.6
  36    5:30   39.6    82    1.3   152      2.0   919.3    0.00       0    47.5
  36    5:40   39.6    80    1.0   145      1.8   919.6    0.00       0    47.4
  36    5:50   39.8    79    0.9   142      1.6   919.8    0.00       0    47.3
  36    6:00   39.8    79    0.7   135      2.0   919.7    0.00       0    47.2
  36    6:10   40.4    79    2.1   105      3.5   919.5    0.00       0    47.1
  36    6:20   41.4    77    0.8    57      2.9   919.6    0.00       0    47.1
  36    6:30   40.6    78    0.4   268      2.6   919.5    0.00       0    47.0
  36    6:40   37.4    83    1.5   277      2.5   919.7    0.00       4    47.0
  36    6:50   36.1    86    0.3   288      1.6   919.8    0.00       8    46.9
  36    7:00   36.6    86    0.9    39      2.6   919.6    0.00      13    46.8
  36    7:10   38.3    84    1.6    64      2.7   919.5    0.00      29    46.7
  36    7:20   40.7    79    1.1    88      1.8   919.5    0.00      57    46.7
  36    7:30   43.3    75    0.1    44      1.5   919.7    0.00      95    46.6
  36    7:40   42.9    74    1.2   242      2.3   919.9    0.00     110    46.6
  36    7:50   42.3    77    0.9   235      2.3   920.1    0.00     160    46.7
  36    8:00   46.3    71    0.3    63      1.1   920.3    0.00     174    46.8
  36    8:10   46.3    69    1.1    81      2.0   920.5    0.00     186    47.0
  36    8:20   46.2    70    2.3    84      3.3   920.7    0.00     247    47.3
  36    8:30   46.5    70    2.2    74      3.5   921.0    0.00     250    47.6
  36    8:40   47.9    66    1.6    43      2.8   921.2    0.00     328    47.9
  36    8:50   49.6    62    0.8    31      2.6   921.4    0.00     329    48.2
  36    9:00   51.7    56    0.8    56      1.9   921.5    0.00     353    48.5
  36    9:10   53.2    54    0.6   277      1.5   921.7    0.00     394    48.9
  36    9:20   52.7    55    1.4   268      3.9   921.9    0.00     391    49.3
  36    9:30   51.3    59    2.7   275      4.3   922.2    0.00     345    49.6
  36    9:40   50.7    61    2.8   272      4.4   922.2    0.00     329    49.8
  36    9:50   51.2    59    2.0   298      3.9   922.2    0.00     390    49.9
  36   10:00   52.2    57    1.4   260      3.1   922.2    0.00     477    49.9
  36   10:10   53.1    55    1.7   313      3.2   922.3    0.00     393    50.0
  36   10:20   54.2    53    0.6   287      1.7   922.2    0.00     256    50.1
  36   10:30   54.9    51    0.9   186      2.9   922.3    0.00     330    50.3
  36   10:40   54.8    51    1.0    78      2.4   922.2    0.00     402    50.4
  36   10:50   56.2    47    1.3   128      2.6   922.1    0.00     455    50.5
  36   11:00   56.3    46    1.7   142      3.1   922.0    0.00     527    50.7
  36   11:10   57.5    44    1.5   131      4.4   921.9    0.00     596    50.8
  36   11:20   57.5    44    1.6   109      3.9   921.6    0.00     520    51.0
  36   11:30   57.8    44    1.2   331      2.8   921.7    0.00     535    51.2
  36   11:40   58.1    44    1.7   279      3.9   921.5    0.00     458    51.5
  36   11:50   57.9    45    1.3   264      3.4   921.2    0.00     392    52.0
  36   12:00   58.7    43    0.9   262      2.8   920.8    0.00     412    52.4
  36   12:10   59.0    43    1.2   162      2.6   920.3    0.00     426    52.8
  36   12:20   59.8    42    1.5    70      3.2   920.1    0.00     435    53.1
  36   12:30   59.1    43    1.6    48      4.0   919.7    0.00     457    53.5
  36   12:40   60.3    41    1.9    62      4.5   919.4    0.00     512    53.8
  36   12:50   61.7    39    0.9   127      4.2   919.1    0.00     483    54.2
  36   13:00   61.4    39    1.6   218      4.9   919.1    0.00     441    54.5
  36   13:10   61.2    40    3.5   263      7.3   919.1    0.00     514    54.9
  36   13:20   61.5    40    3.0   271      5.4   919.0    0.00     456    55.2
  36   13:30   61.2    40    2.9   272      6.6   918.9    0.00     432    55.5
  36   13:40   62.4    37    2.3   272      5.0   918.8    0.00     565    55.9
  36   13:50   62.9    36    3.9   258      8.6   919.0    0.00     460    56.1
  36   14:00   63.3    35    2.3   252      6.1   919.1    0.00     270    56.4
  36   14:10   62.9    35    1.9   254      4.9   919.1    0.00     298    56.8
  36   14:20   64.1    33    1.9   210      5.2   919.1    0.00     259    57.0
  36   14:30   63.8    33    2.5   200      5.1   918.9    0.00     267    57.1
  36   14:40   63.2    34    3.3   266      5.7   918.8    0.00     265    57.2
  36   14:50   63.1    34    2.7   269      6.0   918.6    0.00     237    57.2
  36   15:00   63.3    33    2.8   239      5.2   918.5    0.00     194    57.2
  36   15:10   62.4    38    2.9   247      6.9   918.4    0.00     126    57.2
  36   15:20   61.5    41    3.5   244      7.4   918.3    0.00     143    57.2
  36   15:30   61.4    41    2.5   235      7.3   918.2    0.00     158    57.2
  36   15:40   61.5    40    2.7   232      6.4   918.1    0.00     118    57.1
  36   15:50   60.9    41    2.1   232      5.2   918.0    0.00      92    57.1
  36   16:00   61.0    40    2.4   206      5.0   917.8    0.00      96    56.9
  36   16:10   61.2    38    3.4   183      5.2   917.7    0.00      78    56.8
  36   16:20   61.1    40    4.5   186      6.4   917.9    0.00      70    56.8
  36   16:30   60.9    40    3.2   184      6.3   918.1    0.00      55    56.6
  36   16:40   60.6    40    3.4   158      4.8   918.1    0.00      34    56.5
  36   16:50   60.3    40    3.2   152      4.5   918.0    0.00      30    56.4
  36   17:00   59.8    41    3.8   140      5.6   918.0    0.00      24    56.3
  36   17:10   59.2    43    3.8   129      6.3   918.0    0.00       8    56.1
  36   17:20   58.8    42    6.0   145     11.2   917.9    0.00       3    56.0
  36   17:30   58.7    41    7.9   141     10.3   917.7    0.00       1    55.9
  36   17:40   58.3    39    7.8   138     10.8   917.6    0.00       0    55.7
  36   17:50   58.0    38    8.4   133     11.8   917.5    0.00       0    55.6
  36   18:00   57.7    39    6.8   154     11.5   917.7    0.00       0    55.5
  36   18:10   57.6    40    8.2   149     12.5   917.6    0.00       0    55.4
  36   18:20   57.4    42   11.1   141     16.5   917.5    0.00       0    55.3
  36   18:30   57.6    41   13.2   148     19.2   917.4    0.00       0    55.1
  36   18:40   57.8    41    9.6   164     15.9   917.4    0.00       0    55.0
  36   18:50   57.1    42    7.2   140     11.0   917.5    0.00       0    55.0
  36   19:00   56.3    45    8.5   135     11.4   917.4    0.00       0    54.9
  36   19:10   56.1    44    9.0   137     12.1   917.3    0.00       0    54.8
  36   19:20   55.8    45    8.8   130     11.4   917.2    0.00       0    54.7
  36   19:30   55.6    44   10.1   135     14.3   917.0    0.00       0    54.6
  36   19:40   55.6    44    7.5   150     11.8   916.9    0.00       0    54.4
  36   19:50   55.8    43    7.3   149     11.2   916.8    0.00       0    54.3
  36   20:00   55.6    43    9.2   145     13.5   916.7    0.00       0    54.2
  36   20:10   55.1    45    8.4   147     13.0   916.5    0.00       0    54.1
  36   20:20   55.0    45    7.9   152     13.0   916.3    0.00       0    54.0
  36   20:30   54.9    44    7.7   153     12.6   916.3    0.00       0    53.9
  36   20:40   54.8    44    9.5   149     17.0   916.1    0.00       0    53.8
  36   20:50   55.7    41    9.2   158     12.9   916.1    0.00       0    53.6

Return to Pahrump, Nevada graphs page.


Western Regional Climate Center,wrcc@dri.edu